Hohn Airport ETNH

Flugplatz Daten

Name: Hohn Airport

Ident: ETNH

Lat: 54,31219864

Long: 9,538169861

Platzhöhe: 39 ft

IataCode:

City:

Metar

2021/10/25 22:20
ETNH 252220Z AUTO 21004KT 1200 // ////// 10/10 Q1014 ///

Taf

2021/07/29 17:52
TAF ETNH 292100Z 2917/3017 CNL 2100 BY ETGL
Gewünschte Webcam nicht vorhanden? Dann fügen Sie eine hinzu. Sie wird dann so schnell wie möglich freigeschaltet
Url: Title: